EIKY/KIR METAR and TAF weather

Enter ICAO airport designator
Station Type Date Time Source
EIKY METAR 2020/02/20 19:30 UTC NOAA

EIKY 201930Z 26007KT 230V290 9999 -RA BKN032 06/03 Q1018


Station Type Date Time Source
EIKY Decoded METAR 2020/02/20 19:30 UTC NOAA

Station name not available
Feb 20, 2020 - 02:30 PM EST / 2020.02.20 1930 UTC
Wind: from the W (260 degrees) at 8 MPH (7 KT) (direction variable):0
Visibility: greater than 7 mile(s):0
Sky conditions: mostly cloudy
Weather: light rain
Temperature: 42 F (6 C)
Dew Point: 37 F (3 C)
Relative Humidity: 81%
Pressure (altimeter): 30.06 in. Hg (1018 hPa)
ob: EIKY 201930Z 26007KT 230V290 9999 -RA BKN032 06/03 Q1018
cycle: 19

Station Type Date Time Source
EIKY TAF UTC NOAA

Error!

Example: see airport list